sensor_id;sensor_type;location;lat;lon;timestamp;P1;durP1;ratioP1;P2;durP2;ratioP2
32082;SDS011;18597;48.328;7.932;2023-07-31T00:01:46;3.43;;;3.03;;
32082;SDS011;18597;48.328;7.932;2023-07-31T00:04:12;5.07;;;3.60;;
32082;SDS011;18597;48.328;7.932;2023-07-31T00:06:38;4.27;;;3.53;;
32082;SDS011;18597;48.328;7.932;2023-07-31T00:09:03;3.67;;;3.23;;
32082;SDS011;18597;48.328;7.932;2023-07-31T00:11:29;3.23;;;2.93;;
32082;SDS011;18597;48.328;7.932;2023-07-31T00:13:55;4.10;;;3.30;;
32082;SDS011;18597;48.328;7.932;2023-07-31T00:16:21;6.43;;;3.60;;
32082;SDS011;18597;48.328;7.932;2023-07-31T00:18:47;5.13;;;3.20;;
32082;SDS011;18597;48.328;7.932;2023-07-31T00:21:12;10.30;;;4.10;;
32082;SDS011;18597;48.328;7.932;2023-07-31T00:23:38;3.73;;;3.13;;
32082;SDS011;18597;48.328;7.932;2023-07-31T00:26:04;2.97;;;2.77;;
32082;SDS011;18597;48.328;7.932;2023-07-31T00:28:30;4.33;;;3.20;;
32082;SDS011;18597;48.328;7.932;2023-07-31T00:30:55;3.53;;;3.23;;
32082;SDS011;18597;48.328;7.932;2023-07-31T00:33:21;6.17;;;3.40;;
32082;SDS011;18597;48.328;7.932;2023-07-31T00:35:48;3.50;;;3.30;;
32082;SDS011;18597;48.328;7.932;2023-07-31T00:38:14;6.67;;;4.13;;
32082;SDS011;18597;48.328;7.932;2023-07-31T00:40:39;3.80;;;3.60;;
32082;SDS011;18597;48.328;7.932;2023-07-31T00:43:05;7.70;;;3.60;;
32082;SDS011;18597;48.328;7.932;2023-07-31T00:45:31;3.73;;;3.43;;
32082;SDS011;18597;48.328;7.932;2023-07-31T00:47:57;8.93;;;4.20;;
32082;SDS011;18597;48.328;7.932;2023-07-31T00:50:24;3.60;;;3.40;;
32082;SDS011;18597;48.328;7.932;2023-07-31T00:52:50;4.00;;;3.43;;
32082;SDS011;18597;48.328;7.932;2023-07-31T00:55:16;3.70;;;3.30;;
32082;SDS011;18597;48.328;7.932;2023-07-31T00:57:42;6.73;;;3.67;;
32082;SDS011;18597;48.328;7.932;2023-07-31T01:00:10;5.80;;;3.37;;
32082;SDS011;18597;48.328;7.932;2023-07-31T01:02:37;5.00;;;3.10;;
32082;SDS011;18597;48.328;7.932;2023-07-31T01:05:03;6.77;;;4.03;;
32082;SDS011;18597;48.328;7.932;2023-07-31T01:07:31;7.13;;;3.37;;
32082;SDS011;18597;48.328;7.932;2023-07-31T01:10:11;4.80;;;3.80;;
32082;SDS011;18597;48.328;7.932;2023-07-31T01:12:56;4.90;;;3.37;;
32082;SDS011;18597;48.328;7.932;2023-07-31T01:15:23;6.80;;;3.50;;
32082;SDS011;18597;48.328;7.932;2023-07-31T01:17:48;7.10;;;3.70;;
32082;SDS011;18597;48.328;7.932;2023-07-31T01:20:15;3.93;;;3.60;;
32082;SDS011;18597;48.328;7.932;2023-07-31T01:23:35;10.60;;;3.87;;
32082;SDS011;18597;48.328;7.932;2023-07-31T01:25:59;14.80;;;3.70;;
32082;SDS011;18597;48.328;7.932;2023-07-31T01:28:49;5.10;;;4.03;;
32082;SDS011;18597;48.328;7.932;2023-07-31T01:31:25;5.13;;;4.17;;
32082;SDS011;18597;48.328;7.932;2023-07-31T01:33:54;5.33;;;4.10;;
32082;SDS011;18597;48.328;7.932;2023-07-31T01:36:24;5.30;;;4.07;;
32082;SDS011;18597;48.328;7.932;2023-07-31T01:38:50;3.30;;;3.10;;
32082;SDS011;18597;48.328;7.932;2023-07-31T01:41:17;10.67;;;3.90;;
32082;SDS011;18597;48.328;7.932;2023-07-31T01:43:44;9.23;;;5.20;;
32082;SDS011;18597;48.328;7.932;2023-07-31T01:46:11;7.40;;;3.50;;
32082;SDS011;18597;48.328;7.932;2023-07-31T01:48:37;5.83;;;3.80;;
32082;SDS011;18597;48.328;7.932;2023-07-31T01:51:02;7.60;;;4.27;;
32082;SDS011;18597;48.328;7.932;2023-07-31T01:53:29;10.90;;;3.97;;
32082;SDS011;18597;48.328;7.932;2023-07-31T01:55:56;3.80;;;3.23;;
32082;SDS011;18597;48.328;7.932;2023-07-31T01:58:22;5.73;;;3.90;;
32082;SDS011;18597;48.328;7.932;2023-07-31T02:00:48;12.33;;;4.60;;
32082;SDS011;18597;48.328;7.932;2023-07-31T02:03:13;9.33;;;4.13;;
32082;SDS011;18597;48.328;7.932;2023-07-31T02:05:47;4.50;;;4.23;;
32082;SDS011;18597;48.328;7.932;2023-07-31T02:08:14;6.60;;;4.10;;
32082;SDS011;18597;48.328;7.932;2023-07-31T02:10:40;9.10;;;4.03;;
32082;SDS011;18597;48.328;7.932;2023-07-31T02:13:06;11.83;;;4.60;;
32082;SDS011;18597;48.328;7.932;2023-07-31T02:15:33;4.97;;;4.57;;
32082;SDS011;18597;48.328;7.932;2023-07-31T02:17:59;5.43;;;4.60;;
32082;SDS011;18597;48.328;7.932;2023-07-31T02:20:25;4.50;;;4.07;;
32082;SDS011;18597;48.328;7.932;2023-07-31T02:22:51;5.77;;;4.70;;
32082;SDS011;18597;48.328;7.932;2023-07-31T02:25:17;7.03;;;4.33;;
32082;SDS011;18597;48.328;7.932;2023-07-31T02:27:43;3.77;;;3.33;;
32082;SDS011;18597;48.328;7.932;2023-07-31T02:30:08;4.57;;;4.13;;
32082;SDS011;18597;48.328;7.932;2023-07-31T02:32:35;7.00;;;4.50;;
32082;SDS011;18597;48.328;7.932;2023-07-31T02:35:01;8.77;;;4.57;;
32082;SDS011;18597;48.328;7.932;2023-07-31T02:37:27;8.73;;;3.70;;
32082;SDS011;18597;48.328;7.932;2023-07-31T02:39:54;7.17;;;4.17;;
32082;SDS011;18597;48.328;7.932;2023-07-31T02:42:20;4.97;;;4.50;;
32082;SDS011;18597;48.328;7.932;2023-07-31T02:44:46;20.80;;;4.33;;
32082;SDS011;18597;48.328;7.932;2023-07-31T02:47:12;5.80;;;3.77;;
32082;SDS011;18597;48.328;7.932;2023-07-31T02:49:37;4.37;;;3.97;;
32082;SDS011;18597;48.328;7.932;2023-07-31T02:52:03;8.10;;;3.77;;
32082;SDS011;18597;48.328;7.932;2023-07-31T02:54:29;3.97;;;3.63;;
32082;SDS011;18597;48.328;7.932;2023-07-31T02:56:55;4.37;;;3.93;;
32082;SDS011;18597;48.328;7.932;2023-07-31T02:59:21;7.53;;;4.80;;
32082;SDS011;18597;48.328;7.932;2023-07-31T03:01:46;4.50;;;3.40;;
32082;SDS011;18597;48.328;7.932;2023-07-31T03:04:12;5.90;;;3.80;;
32082;SDS011;18597;48.328;7.932;2023-07-31T03:06:38;5.43;;;3.67;;
32082;SDS011;18597;48.328;7.932;2023-07-31T03:09:04;3.10;;;2.90;;
32082;SDS011;18597;48.328;7.932;2023-07-31T03:11:29;3.30;;;3.20;;
32082;SDS011;18597;48.328;7.932;2023-07-31T03:13:55;18.60;;;4.13;;
32082;SDS011;18597;48.328;7.932;2023-07-31T03:16:21;6.23;;;5.50;;
32082;SDS011;18597;48.328;7.932;2023-07-31T03:18:47;7.10;;;5.00;;
32082;SDS011;18597;48.328;7.932;2023-07-31T03:21:13;8.57;;;4.10;;
32082;SDS011;18597;48.328;7.932;2023-07-31T03:23:39;3.67;;;3.40;;
32082;SDS011;18597;48.328;7.932;2023-07-31T03:26:06;4.50;;;4.17;;
32082;SDS011;18597;48.328;7.932;2023-07-31T03:28:33;7.80;;;3.60;;
32082;SDS011;18597;48.328;7.932;2023-07-31T03:30:59;12.03;;;4.03;;
32082;SDS011;18597;48.328;7.932;2023-07-31T03:33:25;12.77;;;3.77;;
32082;SDS011;18597;48.328;7.932;2023-07-31T03:35:51;6.93;;;3.80;;
32082;SDS011;18597;48.328;7.932;2023-07-31T03:38:17;4.00;;;3.60;;
32082;SDS011;18597;48.328;7.932;2023-07-31T03:40:43;8.20;;;4.23;;
32082;SDS011;18597;48.328;7.932;2023-07-31T03:43:09;7.67;;;4.20;;
32082;SDS011;18597;48.328;7.932;2023-07-31T03:45:36;4.70;;;4.30;;
32082;SDS011;18597;48.328;7.932;2023-07-31T03:48:03;10.50;;;5.77;;
32082;SDS011;18597;48.328;7.932;2023-07-31T03:50:29;6.03;;;3.70;;
32082;SDS011;18597;48.328;7.932;2023-07-31T03:52:55;6.63;;;3.30;;
32082;SDS011;18597;48.328;7.932;2023-07-31T03:55:21;4.87;;;3.90;;
32082;SDS011;18597;48.328;7.932;2023-07-31T03:57:47;6.17;;;3.63;;
32082;SDS011;18597;48.328;7.932;2023-07-31T04:00:13;5.80;;;3.87;;
32082;SDS011;18597;48.328;7.932;2023-07-31T04:02:39;4.00;;;3.20;;
32082;SDS011;18597;48.328;7.932;2023-07-31T04:05:05;5.03;;;3.83;;
32082;SDS011;18597;48.328;7.932;2023-07-31T04:07:32;3.40;;;3.03;;
32082;SDS011;18597;48.328;7.932;2023-07-31T04:09:59;4.03;;;3.57;;
32082;SDS011;18597;48.328;7.932;2023-07-31T04:12:25;6.50;;;3.33;;
32082;SDS011;18597;48.328;7.932;2023-07-31T04:14:51;4.13;;;3.83;;
32082;SDS011;18597;48.328;7.932;2023-07-31T04:17:17;11.90;;;3.70;;
32082;SDS011;18597;48.328;7.932;2023-07-31T04:19:43;5.90;;;3.90;;
32082;SDS011;18597;48.328;7.932;2023-07-31T04:22:09;3.70;;;3.50;;
32082;SDS011;18597;48.328;7.932;2023-07-31T04:24:35;7.83;;;3.67;;
32082;SDS011;18597;48.328;7.932;2023-07-31T04:27:01;9.17;;;5.03;;
32082;SDS011;18597;48.328;7.932;2023-07-31T04:29:26;5.33;;;3.80;;
32082;SDS011;18597;48.328;7.932;2023-07-31T04:31:52;9.23;;;4.10;;
32082;SDS011;18597;48.328;7.932;2023-07-31T04:34:18;9.77;;;4.03;;
32082;SDS011;18597;48.328;7.932;2023-07-31T04:36:44;6.67;;;3.37;;
32082;SDS011;18597;48.328;7.932;2023-07-31T04:39:10;10.10;;;5.17;;
32082;SDS011;18597;48.328;7.932;2023-07-31T04:41:35;5.43;;;3.33;;
32082;SDS011;18597;48.328;7.932;2023-07-31T04:44:01;10.00;;;3.87;;
32082;SDS011;18597;48.328;7.932;2023-07-31T04:46:28;15.87;;;4.40;;
32082;SDS011;18597;48.328;7.932;2023-07-31T04:48:55;4.53;;;3.53;;
32082;SDS011;18597;48.328;7.932;2023-07-31T04:51:21;14.23;;;4.77;;
32082;SDS011;18597;48.328;7.932;2023-07-31T04:53:48;4.53;;;3.57;;
32082;SDS011;18597;48.328;7.932;2023-07-31T04:56:14;5.03;;;3.60;;
32082;SDS011;18597;48.328;7.932;2023-07-31T04:58:41;5.73;;;3.40;;
32082;SDS011;18597;48.328;7.932;2023-07-31T05:01:07;7.80;;;3.23;;
32082;SDS011;18597;48.328;7.932;2023-07-31T05:03:32;5.13;;;3.23;;
32082;SDS011;18597;48.328;7.932;2023-07-31T05:05:58;5.57;;;3.50;;
32082;SDS011;18597;48.328;7.932;2023-07-31T05:08:24;8.13;;;3.50;;
32082;SDS011;18597;48.328;7.932;2023-07-31T05:10:50;5.70;;;4.20;;
32082;SDS011;18597;48.328;7.932;2023-07-31T05:13:16;8.90;;;3.90;;
32082;SDS011;18597;48.328;7.932;2023-07-31T05:15:42;3.83;;;3.60;;
32082;SDS011;18597;48.328;7.932;2023-07-31T05:18:08;8.13;;;3.10;;
32082;SDS011;18597;48.328;7.932;2023-07-31T05:20:33;9.20;;;3.40;;
32082;SDS011;18597;48.328;7.932;2023-07-31T05:22:59;5.27;;;3.87;;
32082;SDS011;18597;48.328;7.932;2023-07-31T05:25:25;2.67;;;2.57;;
32082;SDS011;18597;48.328;7.932;2023-07-31T05:27:51;11.63;;;3.60;;
32082;SDS011;18597;48.328;7.932;2023-07-31T05:30:16;3.80;;;2.33;;
32082;SDS011;18597;48.328;7.932;2023-07-31T05:32:42;4.93;;;3.53;;
32082;SDS011;18597;48.328;7.932;2023-07-31T05:35:08;8.93;;;2.63;;
32082;SDS011;18597;48.328;7.932;2023-07-31T05:37:34;4.53;;;2.70;;
32082;SDS011;18597;48.328;7.932;2023-07-31T05:40:00;2.63;;;2.40;;
32082;SDS011;18597;48.328;7.932;2023-07-31T05:42:26;2.37;;;2.27;;
32082;SDS011;18597;48.328;7.932;2023-07-31T05:44:52;3.37;;;3.17;;
32082;SDS011;18597;48.328;7.932;2023-07-31T05:47:17;3.03;;;2.20;;
32082;SDS011;18597;48.328;7.932;2023-07-31T05:49:43;3.10;;;2.90;;
32082;SDS011;18597;48.328;7.932;2023-07-31T05:52:09;2.80;;;2.70;;
32082;SDS011;18597;48.328;7.932;2023-07-31T05:54:35;6.10;;;3.10;;
32082;SDS011;18597;48.328;7.932;2023-07-31T05:57:01;10.90;;;3.30;;
32082;SDS011;18597;48.328;7.932;2023-07-31T05:59:26;13.83;;;3.50;;
32082;SDS011;18597;48.328;7.932;2023-07-31T06:01:52;6.23;;;3.50;;
32082;SDS011;18597;48.328;7.932;2023-07-31T06:04:18;9.57;;;3.07;;
32082;SDS011;18597;48.328;7.932;2023-07-31T06:06:44;3.33;;;3.13;;
32082;SDS011;18597;48.328;7.932;2023-07-31T06:09:10;3.13;;;2.50;;
32082;SDS011;18597;48.328;7.932;2023-07-31T06:11:36;3.00;;;2.80;;
32082;SDS011;18597;48.328;7.932;2023-07-31T06:14:02;3.57;;;2.80;;
32082;SDS011;18597;48.328;7.932;2023-07-31T06:16:28;3.13;;;2.60;;
32082;SDS011;18597;48.328;7.932;2023-07-31T06:18:54;4.13;;;2.30;;
32082;SDS011;18597;48.328;7.932;2023-07-31T06:21:20;3.03;;;2.60;;
32082;SDS011;18597;48.328;7.932;2023-07-31T06:23:45;7.00;;;2.33;;
32082;SDS011;18597;48.328;7.932;2023-07-31T06:26:11;1.97;;;1.73;;
32082;SDS011;18597;48.328;7.932;2023-07-31T06:28:37;2.30;;;2.10;;
32082;SDS011;18597;48.328;7.932;2023-07-31T06:31:03;5.43;;;2.60;;
32082;SDS011;18597;48.328;7.932;2023-07-31T06:33:29;6.50;;;2.30;;
32082;SDS011;18597;48.328;7.932;2023-07-31T06:35:54;2.10;;;2.00;;
32082;SDS011;18597;48.328;7.932;2023-07-31T06:38:22;2.40;;;2.30;;
32082;SDS011;18597;48.328;7.932;2023-07-31T06:40:50;2.10;;;1.93;;
32082;SDS011;18597;48.328;7.932;2023-07-31T06:43:16;2.33;;;2.20;;
32082;SDS011;18597;48.328;7.932;2023-07-31T06:45:42;3.33;;;2.27;;
32082;SDS011;18597;48.328;7.932;2023-07-31T06:48:08;4.77;;;2.20;;
32082;SDS011;18597;48.328;7.932;2023-07-31T06:50:33;3.23;;;3.00;;
32082;SDS011;18597;48.328;7.932;2023-07-31T06:52:59;2.90;;;1.57;;
32082;SDS011;18597;48.328;7.932;2023-07-31T06:55:26;4.00;;;2.73;;
32082;SDS011;18597;48.328;7.932;2023-07-31T06:57:53;11.63;;;2.40;;
32082;SDS011;18597;48.328;7.932;2023-07-31T07:00:20;4.37;;;2.23;;
32082;SDS011;18597;48.328;7.932;2023-07-31T07:02:48;7.17;;;2.40;;
32082;SDS011;18597;48.328;7.932;2023-07-31T07:05:15;3.27;;;1.63;;
32082;SDS011;18597;48.328;7.932;2023-07-31T07:07:42;2.17;;;1.90;;
32082;SDS011;18597;48.328;7.932;2023-07-31T07:10:09;2.00;;;1.60;;
32082;SDS011;18597;48.328;7.932;2023-07-31T07:12:35;2.50;;;1.70;;
32082;SDS011;18597;48.328;7.932;2023-07-31T07:15:01;2.87;;;2.57;;
32082;SDS011;18597;48.328;7.932;2023-07-31T07:17:28;4.50;;;1.90;;
32082;SDS011;18597;48.328;7.932;2023-07-31T07:19:56;11.80;;;2.43;;
32082;SDS011;18597;48.328;7.932;2023-07-31T07:22:22;2.20;;;2.10;;
32082;SDS011;18597;48.328;7.932;2023-07-31T07:24:49;3.17;;;1.70;;
32082;SDS011;18597;48.328;7.932;2023-07-31T07:27:14;2.83;;;2.13;;
32082;SDS011;18597;48.328;7.932;2023-07-31T07:29:40;2.30;;;1.80;;
32082;SDS011;18597;48.328;7.932;2023-07-31T07:32:06;8.67;;;2.30;;
32082;SDS011;18597;48.328;7.932;2023-07-31T07:34:32;3.07;;;2.50;;
32082;SDS011;18597;48.328;7.932;2023-07-31T07:36:58;4.07;;;2.43;;
32082;SDS011;18597;48.328;7.932;2023-07-31T07:39:24;10.63;;;2.17;;
32082;SDS011;18597;48.328;7.932;2023-07-31T07:41:50;2.80;;;2.40;;
32082;SDS011;18597;48.328;7.932;2023-07-31T07:44:15;3.57;;;2.20;;
32082;SDS011;18597;48.328;7.932;2023-07-31T07:46:41;2.20;;;2.00;;
32082;SDS011;18597;48.328;7.932;2023-07-31T07:49:08;3.33;;;2.40;;
32082;SDS011;18597;48.328;7.932;2023-07-31T07:51:33;2.87;;;2.67;;
32082;SDS011;18597;48.328;7.932;2023-07-31T07:53:59;2.00;;;1.90;;
32082;SDS011;18597;48.328;7.932;2023-07-31T07:56:26;5.83;;;2.50;;
32082;SDS011;18597;48.328;7.932;2023-07-31T07:58:52;2.53;;;2.33;;
32082;SDS011;18597;48.328;7.932;2023-07-31T08:01:19;2.90;;;2.40;;
32082;SDS011;18597;48.328;7.932;2023-07-31T08:03:45;1.70;;;1.50;;
32082;SDS011;18597;48.328;7.932;2023-07-31T08:06:11;5.97;;;2.37;;
32082;SDS011;18597;48.328;7.932;2023-07-31T08:08:38;1.90;;;1.80;;
32082;SDS011;18597;48.328;7.932;2023-07-31T08:11:04;2.22;;;2.13;;
32082;SDS011;18597;48.328;7.932;2023-07-31T08:13:29;1.70;;;1.60;;
32082;SDS011;18597;48.328;7.932;2023-07-31T08:15:55;2.83;;;1.90;;
32082;SDS011;18597;48.328;7.932;2023-07-31T08:18:21;1.60;;;1.60;;
32082;SDS011;18597;48.328;7.932;2023-07-31T08:20:47;2.00;;;1.88;;
32082;SDS011;18597;48.328;7.932;2023-07-31T08:23:14;1.50;;;1.50;;
32082;SDS011;18597;48.328;7.932;2023-07-31T08:25:39;1.70;;;1.60;;
32082;SDS011;18597;48.328;7.932;2023-07-31T08:28:06;2.67;;;1.70;;
32082;SDS011;18597;48.328;7.932;2023-07-31T08:30:32;2.40;;;1.70;;
32082;SDS011;18597;48.328;7.932;2023-07-31T08:32:58;3.50;;;2.13;;
32082;SDS011;18597;48.328;7.932;2023-07-31T08:35:25;2.47;;;1.50;;
32082;SDS011;18597;48.328;7.932;2023-07-31T08:37:53;5.10;;;1.93;;
32082;SDS011;18597;48.328;7.932;2023-07-31T08:40:19;2.13;;;2.00;;
32082;SDS011;18597;48.328;7.932;2023-07-31T08:42:47;4.70;;;2.03;;
32082;SDS011;18597;48.328;7.932;2023-07-31T08:45:17;2.53;;;2.33;;
32082;SDS011;18597;48.328;7.932;2023-07-31T08:47:44;2.73;;;1.90;;
32082;SDS011;18597;48.328;7.932;2023-07-31T08:50:13;1.50;;;1.40;;
32082;SDS011;18597;48.328;7.932;2023-07-31T08:52:41;2.77;;;2.40;;
32082;SDS011;18597;48.328;7.932;2023-07-31T08:55:07;2.03;;;1.83;;
32082;SDS011;18597;48.328;7.932;2023-07-31T08:57:34;3.43;;;2.17;;
32082;SDS011;18597;48.328;7.932;2023-07-31T09:00:03;2.00;;;1.90;;
32082;SDS011;18597;48.328;7.932;2023-07-31T09:02:33;2.77;;;1.83;;
32082;SDS011;18597;48.328;7.932;2023-07-31T09:05:06;2.63;;;1.57;;
32082;SDS011;18597;48.328;7.932;2023-07-31T09:07:34;11.93;;;2.53;;
32082;SDS011;18597;48.328;7.932;2023-07-31T09:10:01;4.53;;;2.47;;
32082;SDS011;18597;48.328;7.932;2023-07-31T09:12:28;2.97;;;2.10;;
32082;SDS011;18597;48.328;7.932;2023-07-31T09:14:54;3.70;;;2.10;;
32082;SDS011;18597;48.328;7.932;2023-07-31T09:17:29;2.63;;;1.37;;
32082;SDS011;18597;48.328;7.932;2023-07-31T09:19:59;6.40;;;2.73;;
32082;SDS011;18597;48.328;7.932;2023-07-31T09:22:43;2.93;;;2.30;;
32082;SDS011;18597;48.328;7.932;2023-07-31T09:25:18;5.73;;;2.50;;
32082;SDS011;18597;48.328;7.932;2023-07-31T09:27:50;3.20;;;1.97;;
32082;SDS011;18597;48.328;7.932;2023-07-31T09:30:25;2.50;;;1.50;;
32082;SDS011;18597;48.328;7.932;2023-07-31T09:33:00;7.63;;;2.60;;
32082;SDS011;18597;48.328;7.932;2023-07-31T09:35:32;7.23;;;2.20;;
32082;SDS011;18597;48.328;7.932;2023-07-31T09:38:01;2.30;;;2.13;;
32082;SDS011;18597;48.328;7.932;2023-07-31T09:40:33;5.10;;;2.47;;
32082;SDS011;18597;48.328;7.932;2023-07-31T09:43:01;3.00;;;2.20;;
32082;SDS011;18597;48.328;7.932;2023-07-31T09:45:30;7.33;;;2.43;;
32082;SDS011;18597;48.328;7.932;2023-07-31T09:48:01;4.07;;;2.23;;
32082;SDS011;18597;48.328;7.932;2023-07-31T09:50:27;3.10;;;2.10;;
32082;SDS011;18597;48.328;7.932;2023-07-31T09:52:55;3.47;;;2.00;;
32082;SDS011;18597;48.328;7.932;2023-07-31T09:55:20;5.73;;;2.30;;
32082;SDS011;18597;48.328;7.932;2023-07-31T09:57:47;5.00;;;2.60;;
32082;SDS011;18597;48.328;7.932;2023-07-31T10:00:14;2.23;;;2.13;;
32082;SDS011;18597;48.328;7.932;2023-07-31T10:02:45;2.20;;;2.10;;
32082;SDS011;18597;48.328;7.932;2023-07-31T10:05:13;1.60;;;1.50;;
32082;SDS011;18597;48.328;7.932;2023-07-31T10:07:42;2.47;;;2.27;;
32082;SDS011;18597;48.328;7.932;2023-07-31T10:10:16;3.03;;;2.00;;
32082;SDS011;18597;48.328;7.932;2023-07-31T10:12:44;3.90;;;2.07;;
32082;SDS011;18597;48.328;7.932;2023-07-31T10:15:12;4.00;;;2.73;;
32082;SDS011;18597;48.328;7.932;2023-07-31T10:17:40;2.90;;;2.33;;
32082;SDS011;18597;48.328;7.932;2023-07-31T10:20:06;7.93;;;2.50;;
32082;SDS011;18597;48.328;7.932;2023-07-31T10:22:33;4.50;;;2.50;;
32082;SDS011;18597;48.328;7.932;2023-07-31T10:25:00;3.53;;;2.40;;
32082;SDS011;18597;48.328;7.932;2023-07-31T10:27:27;9.53;;;2.37;;
32082;SDS011;18597;48.328;7.932;2023-07-31T10:29:54;2.70;;;2.00;;
32082;SDS011;18597;48.328;7.932;2023-07-31T10:32:22;3.00;;;1.80;;
32082;SDS011;18597;48.328;7.932;2023-07-31T10:34:50;2.83;;;1.70;;
32082;SDS011;18597;48.328;7.932;2023-07-31T10:40:00;1.80;;;1.80;;
32082;SDS011;18597;48.328;7.932;2023-07-31T10:42:34;3.33;;;2.43;;
32082;SDS011;18597;48.328;7.932;2023-07-31T10:45:03;4.07;;;2.10;;
32082;SDS011;18597;48.328;7.932;2023-07-31T10:47:46;2.00;;;1.83;;
32082;SDS011;18597;48.328;7.932;2023-07-31T10:50:13;4.40;;;2.30;;
32082;SDS011;18597;48.328;7.932;2023-07-31T10:52:49;4.73;;;2.40;;
32082;SDS011;18597;48.328;7.932;2023-07-31T10:58:07;2.30;;;2.20;;
32082;SDS011;18597;48.328;7.932;2023-07-31T11:00:36;2.47;;;2.27;;
32082;SDS011;18597;48.328;7.932;2023-07-31T11:03:06;2.60;;;2.13;;
32082;SDS011;18597;48.328;7.932;2023-07-31T11:06:09;4.97;;;2.20;;
32082;SDS011;18597;48.328;7.932;2023-07-31T11:08:33;3.33;;;1.97;;
32082;SDS011;18597;48.328;7.932;2023-07-31T11:11:07;4.67;;;2.10;;
32082;SDS011;18597;48.328;7.932;2023-07-31T11:13:42;3.60;;;2.57;;
32082;SDS011;18597;48.328;7.932;2023-07-31T11:16:18;3.17;;;2.60;;
32082;SDS011;18597;48.328;7.932;2023-07-31T11:18:46;9.73;;;3.77;;
32082;SDS011;18597;48.328;7.932;2023-07-31T11:21:14;5.33;;;2.70;;
32082;SDS011;18597;48.328;7.932;2023-07-31T11:23:47;2.90;;;2.17;;
32082;SDS011;18597;48.328;7.932;2023-07-31T11:26:15;2.90;;;2.40;;
32082;SDS011;18597;48.328;7.932;2023-07-31T11:28:43;3.70;;;2.60;;
32082;SDS011;18597;48.328;7.932;2023-07-31T11:31:12;2.37;;;2.20;;
32082;SDS011;18597;48.328;7.932;2023-07-31T11:33:38;2.40;;;2.30;;
32082;SDS011;18597;48.328;7.932;2023-07-31T11:36:04;8.63;;;2.90;;
32082;SDS011;18597;48.328;7.932;2023-07-31T11:38:31;4.30;;;2.67;;
32082;SDS011;18597;48.328;7.932;2023-07-31T11:40:59;4.37;;;2.50;;
32082;SDS011;18597;48.328;7.932;2023-07-31T11:43:28;7.70;;;3.10;;
32082;SDS011;18597;48.328;7.932;2023-07-31T11:45:56;7.67;;;2.57;;
32082;SDS011;18597;48.328;7.932;2023-07-31T11:48:26;10.47;;;2.70;;
32082;SDS011;18597;48.328;7.932;2023-07-31T11:50:57;4.30;;;2.90;;
32082;SDS011;18597;48.328;7.932;2023-07-31T11:53:25;3.23;;;2.70;;
32082;SDS011;18597;48.328;7.932;2023-07-31T11:56:17;4.13;;;2.43;;
32082;SDS011;18597;48.328;7.932;2023-07-31T11:58:46;4.80;;;3.00;;
32082;SDS011;18597;48.328;7.932;2023-07-31T12:01:14;4.13;;;1.97;;
32082;SDS011;18597;48.328;7.932;2023-07-31T12:03:42;3.37;;;3.07;;
32082;SDS011;18597;48.328;7.932;2023-07-31T12:06:09;4.43;;;3.57;;
32082;SDS011;18597;48.328;7.932;2023-07-31T12:08:36;6.87;;;2.47;;
32082;SDS011;18597;48.328;7.932;2023-07-31T12:11:04;4.67;;;3.00;;
32082;SDS011;18597;48.328;7.932;2023-07-31T12:13:32;7.10;;;2.47;;
32082;SDS011;18597;48.328;7.932;2023-07-31T12:15:59;4.07;;;2.60;;
32082;SDS011;18597;48.328;7.932;2023-07-31T12:18:30;4.83;;;3.30;;
32082;SDS011;18597;48.328;7.932;2023-07-31T12:21:01;5.40;;;3.30;;
32082;SDS011;18597;48.328;7.932;2023-07-31T12:23:30;4.50;;;2.53;;
32082;SDS011;18597;48.328;7.932;2023-07-31T12:26:01;3.00;;;2.07;;
32082;SDS011;18597;48.328;7.932;2023-07-31T12:28:40;5.23;;;2.20;;
32082;SDS011;18597;48.328;7.932;2023-07-31T12:31:18;2.57;;;2.37;;
32082;SDS011;18597;48.328;7.932;2023-07-31T12:33:47;5.50;;;3.50;;
32082;SDS011;18597;48.328;7.932;2023-07-31T12:36:17;2.40;;;2.20;;
32082;SDS011;18597;48.328;7.932;2023-07-31T12:38:46;4.07;;;3.30;;
32082;SDS011;18597;48.328;7.932;2023-07-31T12:41:13;4.17;;;2.50;;
32082;SDS011;18597;48.328;7.932;2023-07-31T12:43:40;3.03;;;2.40;;
32082;SDS011;18597;48.328;7.932;2023-07-31T12:46:07;4.60;;;2.40;;
32082;SDS011;18597;48.328;7.932;2023-07-31T12:48:34;2.63;;;2.43;;
32082;SDS011;18597;48.328;7.932;2023-07-31T12:51:01;3.77;;;2.73;;
32082;SDS011;18597;48.328;7.932;2023-07-31T12:53:27;4.30;;;2.50;;
32082;SDS011;18597;48.328;7.932;2023-07-31T12:55:54;9.83;;;2.40;;
32082;SDS011;18597;48.328;7.932;2023-07-31T12:58:20;4.30;;;2.87;;
32082;SDS011;18597;48.328;7.932;2023-07-31T13:00:46;6.13;;;2.77;;
32082;SDS011;18597;48.328;7.932;2023-07-31T13:03:12;4.80;;;2.70;;
32082;SDS011;18597;48.328;7.932;2023-07-31T13:05:38;3.40;;;2.27;;
32082;SDS011;18597;48.328;7.932;2023-07-31T13:08:04;3.40;;;2.77;;
32082;SDS011;18597;48.328;7.932;2023-07-31T13:10:30;3.00;;;2.67;;
32082;SDS011;18597;48.328;7.932;2023-07-31T13:12:56;6.10;;;2.90;;
32082;SDS011;18597;48.328;7.932;2023-07-31T13:15:22;2.90;;;2.80;;
32082;SDS011;18597;48.328;7.932;2023-07-31T13:17:48;9.73;;;3.30;;
32082;SDS011;18597;48.328;7.932;2023-07-31T13:20:14;4.53;;;2.30;;
32082;SDS011;18597;48.328;7.932;2023-07-31T13:22:40;7.43;;;3.83;;
32082;SDS011;18597;48.328;7.932;2023-07-31T13:25:06;4.17;;;2.33;;
32082;SDS011;18597;48.328;7.932;2023-07-31T13:27:32;2.87;;;2.67;;
32082;SDS011;18597;48.328;7.932;2023-07-31T13:29:59;3.87;;;2.27;;
32082;SDS011;18597;48.328;7.932;2023-07-31T13:32:25;4.13;;;3.00;;
32082;SDS011;18597;48.328;7.932;2023-07-31T13:34:51;2.90;;;2.67;;
32082;SDS011;18597;48.328;7.932;2023-07-31T13:37:17;4.60;;;3.20;;
32082;SDS011;18597;48.328;7.932;2023-07-31T13:39:43;5.47;;;2.90;;
32082;SDS011;18597;48.328;7.932;2023-07-31T13:42:09;5.13;;;3.30;;
32082;SDS011;18597;48.328;7.932;2023-07-31T13:44:37;2.60;;;2.40;;
32082;SDS011;18597;48.328;7.932;2023-07-31T13:47:04;4.97;;;2.80;;
32082;SDS011;18597;48.328;7.932;2023-07-31T13:49:31;5.97;;;3.00;;
32082;SDS011;18597;48.328;7.932;2023-07-31T13:51:57;5.53;;;2.20;;
32082;SDS011;18597;48.328;7.932;2023-07-31T13:54:23;3.70;;;2.83;;
32082;SDS011;18597;48.328;7.932;2023-07-31T13:56:50;4.83;;;2.90;;
32082;SDS011;18597;48.328;7.932;2023-07-31T13:59:18;3.23;;;2.93;;
32082;SDS011;18597;48.328;7.932;2023-07-31T14:01:44;3.40;;;3.13;;
32082;SDS011;18597;48.328;7.932;2023-07-31T14:04:10;6.43;;;3.07;;
32082;SDS011;18597;48.328;7.932;2023-07-31T14:06:36;2.73;;;2.53;;
32082;SDS011;18597;48.328;7.932;2023-07-31T14:09:03;3.33;;;3.00;;
32082;SDS011;18597;48.328;7.932;2023-07-31T14:11:30;3.60;;;3.23;;
32082;SDS011;18597;48.328;7.932;2023-07-31T14:13:57;2.97;;;2.77;;
32082;SDS011;18597;48.328;7.932;2023-07-31T14:16:23;6.33;;;3.30;;
32082;SDS011;18597;48.328;7.932;2023-07-31T14:18:49;5.60;;;3.00;;
32082;SDS011;18597;48.328;7.932;2023-07-31T14:21:15;2.57;;;2.37;;
32082;SDS011;18597;48.328;7.932;2023-07-31T14:23:41;2.20;;;2.10;;
32082;SDS011;18597;48.328;7.932;2023-07-31T14:26:07;5.03;;;3.50;;
32082;SDS011;18597;48.328;7.932;2023-07-31T14:28:33;4.20;;;2.93;;
32082;SDS011;18597;48.328;7.932;2023-07-31T14:30:59;2.93;;;2.37;;
32082;SDS011;18597;48.328;7.932;2023-07-31T14:33:26;3.50;;;2.50;;
32082;SDS011;18597;48.328;7.932;2023-07-31T14:35:52;3.13;;;2.40;;
32082;SDS011;18597;48.328;7.932;2023-07-31T14:38:19;4.20;;;2.20;;
32082;SDS011;18597;48.328;7.932;2023-07-31T14:40:46;4.23;;;3.40;;
32082;SDS011;18597;48.328;7.932;2023-07-31T14:43:12;2.07;;;1.97;;
32082;SDS011;18597;48.328;7.932;2023-07-31T14:45:38;4.07;;;3.73;;
32082;SDS011;18597;48.328;7.932;2023-07-31T14:48:05;3.07;;;2.87;;
32082;SDS011;18597;48.328;7.932;2023-07-31T14:50:31;3.90;;;2.93;;
32082;SDS011;18597;48.328;7.932;2023-07-31T14:52:57;2.53;;;2.43;;
32082;SDS011;18597;48.328;7.932;2023-07-31T14:55:24;3.27;;;2.63;;